Time;durP1;ratioP1;P1;durP2;ratioP2;P2;SDS_P1;SDS_P2;PMS_P1;PMS_P2;Temp;Humidity;BMP_temperature;BMP_pressure;BME280_temperature;BME280_humidity;BME280_pressure;Samples;Min_cycle;Max_cycle;Signal;HPM_P1;HPM_P2
2024/01/14 00:01:16;;;;;;;35.78;14.05;;;;;;;;;;4995769;28;20042;-85
2024/01/14 00:03:42;;;;;;;41.50;16.17;;;;;;;;;;4995887;28;20026;-85
2024/01/14 00:06:07;;;;;;;39.38;15.13;;;;;;;;;;4993448;28;20405;-85
2024/01/14 00:08:32;;;;;;;39.45;15.50;;;;;;;;;;4977816;28;20034;-85
2024/01/14 00:10:58;;;;;;;37.03;13.52;;;;;;;;;;4996315;28;20030;-86
2024/01/14 00:13:23;;;;;;;35.05;13.48;;;;;;;;;;4973364;28;20018;-86
2024/01/14 00:15:49;;;;;;;36.40;14.50;;;;;;;;;;4994211;28;20085;-86
2024/01/14 00:18:14;;;;;;;37.88;14.85;;;;;;;;;;4994723;28;20084;-86
2024/01/14 00:20:40;;;;;;;38.03;15.18;;;;;;;;;;4991356;28;20045;-86
2024/01/14 00:23:05;;;;;;;38.63;14.57;;;;;;;;;;4975592;28;20110;-86
2024/01/14 00:25:31;;;;;;;40.28;15.52;;;;;;;;;;4995284;28;20045;-85
2024/01/14 00:27:56;;;;;;;45.63;16.23;;;;;;;;;;4984403;28;20053;-85
2024/01/14 00:30:22;;;;;;;43.47;18.02;;;;;;;;;;4995710;28;20030;-85
2024/01/14 00:32:47;;;;;;;49.20;16.83;;;;;;;;;;4995569;28;20042;-86
2024/01/14 00:35:13;;;;;;;42.15;15.60;;;;;;;;;;4987768;28;20034;-86
2024/01/14 00:37:39;;;;;;;40.60;16.00;;;;;;;;;;4970653;28;20029;-85
2024/01/14 00:40:09;;;;;;;36.60;14.40;;;;;;;;;;4992165;28;20035;-85
2024/01/14 00:42:38;;;;;;;40.58;14.48;;;;;;;;;;4993444;28;20483;-86
2024/01/14 00:45:03;;;;;;;34.72;13.85;;;;;;;;;;4989379;28;20499;-86
2024/01/14 00:47:30;;;;;;;44.30;16.90;;;;;;;;;;4994455;28;20022;-86
2024/01/14 00:49:56;;;;;;;42.30;16.13;;;;;;;;;;4994130;28;20022;-85
2024/01/14 00:52:22;;;;;;;39.78;15.73;;;;;;;;;;4986049;28;20036;-86
2024/01/14 00:54:47;;;;;;;45.38;16.13;;;;;;;;;;4995051;28;20045;-87
2024/01/14 00:57:13;;;;;;;41.35;15.43;;;;;;;;;;4989163;28;20054;-86
2024/01/14 00:59:39;;;;;;;40.53;15.00;;;;;;;;;;4976983;28;20125;-86
2024/01/14 01:02:04;;;;;;;47.28;15.40;;;;;;;;;;4976032;28;20039;-85
2024/01/14 01:04:29;;;;;;;34.42;13.50;;;;;;;;;;4990456;28;20023;-86
2024/01/14 01:06:55;;;;;;;39.72;15.52;;;;;;;;;;4992932;28;20113;-86
2024/01/14 01:09:21;;;;;;;37.60;14.98;;;;;;;;;;4971198;28;20197;-85
2024/01/14 01:11:47;;;;;;;46.38;16.35;;;;;;;;;;4970662;28;20104;-87
2024/01/14 01:14:14;;;;;;;40.75;15.75;;;;;;;;;;4994913;28;20041;-86
2024/01/14 01:16:39;;;;;;;43.60;15.10;;;;;;;;;;4992311;28;20468;-85
2024/01/14 01:19:05;;;;;;;39.58;15.80;;;;;;;;;;4989785;28;20045;-86
2024/01/14 01:21:30;;;;;;;38.10;15.25;;;;;;;;;;4993231;28;20034;-87
2024/01/14 01:23:56;;;;;;;43.20;15.55;;;;;;;;;;4992298;28;20428;-87
2024/01/14 01:26:21;;;;;;;38.55;14.00;;;;;;;;;;4991756;28;20539;-86
2024/01/14 01:28:47;;;;;;;43.60;16.60;;;;;;;;;;4995412;28;20041;-86
2024/01/14 01:31:13;;;;;;;39.10;15.48;;;;;;;;;;4994401;28;20396;-85
2024/01/14 01:33:38;;;;;;;41.67;16.17;;;;;;;;;;4995709;28;20543;-86
2024/01/14 01:36:04;;;;;;;41.65;15.38;;;;;;;;;;4995000;28;20034;-86
2024/01/14 01:38:29;;;;;;;39.75;14.90;;;;;;;;;;4991965;28;20400;-86
2024/01/14 01:40:55;;;;;;;35.33;14.02;;;;;;;;;;4973611;28;20411;-87
2024/01/14 01:43:20;;;;;;;33.70;13.27;;;;;;;;;;4994880;28;20018;-86
2024/01/14 01:45:46;;;;;;;32.70;13.35;;;;;;;;;;4993711;28;20088;-87
2024/01/14 01:48:13;;;;;;;39.80;14.05;;;;;;;;;;4991697;28;20026;-85
2024/01/14 01:50:39;;;;;;;32.70;13.93;;;;;;;;;;4995493;28;20030;-85
2024/01/14 01:53:04;;;;;;;31.40;12.63;;;;;;;;;;4995535;28;20099;-86
2024/01/14 01:55:30;;;;;;;30.63;12.68;;;;;;;;;;4996796;28;20113;-86
2024/01/14 01:57:55;;;;;;;32.53;12.38;;;;;;;;;;4991787;28;20034;-87
2024/01/14 02:00:21;;;;;;;33.47;13.77;;;;;;;;;;4991810;28;20030;-86
2024/01/14 02:02:47;;;;;;;31.60;12.27;;;;;;;;;;4988412;28;20053;-85
2024/01/14 02:05:13;;;;;;;40.25;14.13;;;;;;;;;;4994739;28;20080;-87
2024/01/14 02:07:39;;;;;;;26.15;12.00;;;;;;;;;;4993142;28;20121;-86
2024/01/14 02:10:05;;;;;;;26.27;10.93;;;;;;;;;;4994101;28;20046;-86
2024/01/14 02:12:31;;;;;;;25.00;10.23;;;;;;;;;;4995674;28;20034;-86
2024/01/14 02:14:56;;;;;;;26.42;10.73;;;;;;;;;;4996436;28;20041;-87
2024/01/14 02:17:22;;;;;;;27.73;10.68;;;;;;;;;;4996443;28;20030;-85
2024/01/14 02:19:47;;;;;;;24.83;10.32;;;;;;;;;;4994124;28;20034;-86
2024/01/14 02:22:19;;;;;;;25.77;10.93;;;;;;;;;;4993703;28;20095;-86
2024/01/14 02:24:45;;;;;;;25.48;10.00;;;;;;;;;;4995432;28;20046;-88
2024/01/14 02:27:11;;;;;;;24.23;11.05;;;;;;;;;;4994953;28;20090;-86
2024/01/14 02:29:38;;;;;;;24.67;10.38;;;;;;;;;;4993734;28;20028;-86
2024/01/14 02:32:04;;;;;;;23.02;10.32;;;;;;;;;;4992350;28;20038;-86
2024/01/14 02:34:29;;;;;;;24.92;10.43;;;;;;;;;;4995455;28;20046;-86
2024/01/14 02:36:55;;;;;;;25.33;11.30;;;;;;;;;;5000809;28;20058;-86
2024/01/14 02:39:21;;;;;;;27.40;11.15;;;;;;;;;;5000589;28;20041;-87
2024/01/14 02:41:46;;;;;;;23.00;10.88;;;;;;;;;;4978791;28;20030;-87
2024/01/14 02:44:12;;;;;;;26.50;10.93;;;;;;;;;;4999124;28;20408;-87
2024/01/14 02:46:38;;;;;;;27.48;10.98;;;;;;;;;;4999638;28;20161;-87
2024/01/14 02:49:03;;;;;;;27.85;11.52;;;;;;;;;;4963787;28;20404;-86
2024/01/14 02:51:28;;;;;;;29.77;11.48;;;;;;;;;;4999760;28;20045;-87
2024/01/14 02:53:54;;;;;;;32.65;12.02;;;;;;;;;;5000408;28;20031;-85
2024/01/14 02:56:19;;;;;;;35.28;13.25;;;;;;;;;;5000886;28;20073;-87
2024/01/14 02:58:45;;;;;;;33.60;13.05;;;;;;;;;;5001041;28;20030;-87
2024/01/14 03:01:11;;;;;;;33.83;12.88;;;;;;;;;;4999334;28;20038;-87
2024/01/14 03:03:38;;;;;;;32.13;12.25;;;;;;;;;;4962212;28;20030;-86
2024/01/14 03:06:03;;;;;;;33.35;13.63;;;;;;;;;;4996061;28;20042;-85
2024/01/14 03:08:29;;;;;;;30.55;12.35;;;;;;;;;;4983092;28;20050;-86
2024/01/14 03:10:54;;;;;;;34.38;13.00;;;;;;;;;;4996013;28;20488;-85
2024/01/14 03:13:20;;;;;;;30.45;12.20;;;;;;;;;;5000602;28;20113;-87
2024/01/14 03:15:45;;;;;;;35.72;13.75;;;;;;;;;;5001272;28;20037;-87
2024/01/14 03:18:12;;;;;;;30.65;13.20;;;;;;;;;;5001551;28;20034;-86
2024/01/14 03:20:37;;;;;;;30.75;13.05;;;;;;;;;;4983218;28;20034;-87
2024/01/14 03:23:03;;;;;;;30.45;13.13;;;;;;;;;;4979590;28;20064;-86
2024/01/14 03:25:29;;;;;;;29.65;12.63;;;;;;;;;;4983261;28;20034;-86
2024/01/14 03:27:54;;;;;;;39.67;14.07;;;;;;;;;;5001359;28;20057;-86
2024/01/14 03:30:20;;;;;;;29.38;12.82;;;;;;;;;;5001806;28;20031;-86
2024/01/14 03:32:45;;;;;;;29.27;12.93;;;;;;;;;;4992250;28;20030;-88
2024/01/14 03:35:11;;;;;;;34.92;13.52;;;;;;;;;;5000414;28;20089;-88
2024/01/14 03:37:37;;;;;;;29.00;12.70;;;;;;;;;;5002210;28;20446;-86
2024/01/14 03:40:03;;;;;;;35.35;13.68;;;;;;;;;;5001731;28;20049;-86
2024/01/14 03:42:29;;;;;;;33.70;13.20;;;;;;;;;;4977207;28;20041;-87
2024/01/14 03:44:55;;;;;;;32.42;13.05;;;;;;;;;;4983008;28;20443;-86
2024/01/14 03:47:21;;;;;;;33.40;13.93;;;;;;;;;;4997516;28;20042;-87
2024/01/14 03:49:46;;;;;;;29.83;12.68;;;;;;;;;;4999531;28;20038;-87
2024/01/14 03:52:12;;;;;;;33.58;13.05;;;;;;;;;;4999326;28;20096;-87
2024/01/14 03:54:37;;;;;;;32.92;13.32;;;;;;;;;;4997818;28;20034;-86
2024/01/14 03:57:02;;;;;;;31.00;12.93;;;;;;;;;;4998421;28;20548;-86
2024/01/14 03:59:28;;;;;;;31.05;12.70;;;;;;;;;;4987308;28;20034;-86
2024/01/14 04:01:53;;;;;;;35.13;13.00;;;;;;;;;;5009429;28;20053;-87
2024/01/14 04:04:19;;;;;;;31.88;13.07;;;;;;;;;;5000420;28;20373;-86
2024/01/14 04:06:45;;;;;;;35.38;14.00;;;;;;;;;;4999922;28;20034;-86
2024/01/14 04:09:10;;;;;;;30.58;12.50;;;;;;;;;;4979740;28;20045;-87
2024/01/14 04:11:36;;;;;;;31.95;13.02;;;;;;;;;;4981162;28;20492;-87
2024/01/14 04:14:02;;;;;;;30.63;12.65;;;;;;;;;;4989299;28;20039;-86
2024/01/14 04:16:38;;;;;;;33.05;13.38;;;;;;;;;;4981547;28;20045;-86
2024/01/14 04:19:04;;;;;;;34.33;12.57;;;;;;;;;;4997006;28;20037;-86
2024/01/14 04:21:30;;;;;;;31.17;13.02;;;;;;;;;;5000617;28;20042;-86
2024/01/14 04:23:55;;;;;;;30.58;12.13;;;;;;;;;;4980624;28;20046;-86
2024/01/14 04:26:22;;;;;;;36.95;14.88;;;;;;;;;;4997491;28;20034;-86
2024/01/14 04:28:48;;;;;;;33.92;14.93;;;;;;;;;;4998387;28;20040;-87
2024/01/14 04:31:13;;;;;;;35.22;13.57;;;;;;;;;;4999676;28;20053;-87
2024/01/14 04:33:39;;;;;;;35.03;13.75;;;;;;;;;;4997680;28;20031;-88
2024/01/14 04:36:04;;;;;;;32.47;13.40;;;;;;;;;;4997131;28;20034;-85
2024/01/14 04:38:30;;;;;;;36.63;13.55;;;;;;;;;;4998485;28;20088;-86
2024/01/14 04:40:55;;;;;;;32.78;12.45;;;;;;;;;;4998361;28;20038;-86
2024/01/14 04:43:21;;;;;;;33.17;13.15;;;;;;;;;;5000152;28;20080;-85
2024/01/14 04:45:46;;;;;;;30.08;12.65;;;;;;;;;;4991078;28;20030;-87
2024/01/14 04:48:12;;;;;;;32.33;13.15;;;;;;;;;;4995257;28;20377;-87
2024/01/14 04:50:41;;;;;;;30.00;12.27;;;;;;;;;;4995440;28;20096;-87
2024/01/14 04:53:07;;;;;;;32.38;13.18;;;;;;;;;;4981102;28;20042;-86
2024/01/14 04:55:32;;;;;;;31.20;12.60;;;;;;;;;;4963228;28;20023;-85
2024/01/14 04:57:58;;;;;;;28.17;12.15;;;;;;;;;;4997616;28;20034;-86
2024/01/14 05:00:25;;;;;;;31.90;12.80;;;;;;;;;;4998160;28;20117;-86
2024/01/14 05:02:50;;;;;;;31.38;12.57;;;;;;;;;;4997878;28;20036;-86
2024/01/14 05:05:16;;;;;;;27.95;11.68;;;;;;;;;;5000380;28;20093;-86
2024/01/14 05:07:42;;;;;;;27.50;11.75;;;;;;;;;;4999280;28;20045;-85
2024/01/14 05:10:08;;;;;;;29.65;12.40;;;;;;;;;;5000754;28;20034;-87
2024/01/14 05:12:34;;;;;;;33.90;13.43;;;;;;;;;;4982481;28;20110;-87
2024/01/14 05:15:00;;;;;;;32.90;12.70;;;;;;;;;;4997121;28;20042;-86
2024/01/14 05:17:26;;;;;;;31.88;12.10;;;;;;;;;;4978234;28;20098;-86
2024/01/14 05:19:52;;;;;;;31.95;12.73;;;;;;;;;;4999342;28;20039;-85
2024/01/14 05:22:17;;;;;;;32.28;12.40;;;;;;;;;;4998815;28;20045;-85
2024/01/14 05:24:44;;;;;;;33.58;12.60;;;;;;;;;;4998799;28;20053;-86
2024/01/14 05:27:11;;;;;;;33.83;12.18;;;;;;;;;;4980217;28;20030;-86
2024/01/14 05:29:42;;;;;;;28.38;11.88;;;;;;;;;;4998540;28;20491;-86
2024/01/14 05:32:11;;;;;;;31.15;11.80;;;;;;;;;;4995673;28;20046;-85
2024/01/14 05:34:37;;;;;;;29.20;11.48;;;;;;;;;;4994545;28;20026;-84
2024/01/14 05:37:02;;;;;;;30.75;12.35;;;;;;;;;;4992358;28;20463;-85
2024/01/14 05:39:28;;;;;;;34.17;13.38;;;;;;;;;;4997511;28;20034;-86
2024/01/14 05:41:54;;;;;;;32.78;13.15;;;;;;;;;;4995773;28;20076;-85
2024/01/14 05:44:19;;;;;;;30.38;11.43;;;;;;;;;;4994699;28;20026;-86
2024/01/14 05:46:45;;;;;;;33.47;12.30;;;;;;;;;;4999187;28;20026;-84
2024/01/14 05:49:10;;;;;;;31.80;12.52;;;;;;;;;;4993410;28;20484;-85
2024/01/14 05:51:36;;;;;;;30.38;12.27;;;;;;;;;;4996268;28;20030;-86
2024/01/14 05:54:03;;;;;;;28.35;12.00;;;;;;;;;;4981140;28;20041;-85
2024/01/14 05:56:29;;;;;;;32.25;12.38;;;;;;;;;;4980359;28;20086;-87
2024/01/14 05:58:55;;;;;;;31.00;12.23;;;;;;;;;;4997462;28;20106;-87
2024/01/14 06:01:20;;;;;;;27.20;12.20;;;;;;;;;;4999218;28;20058;-86
2024/01/14 06:03:46;;;;;;;30.75;12.38;;;;;;;;;;4988641;28;20051;-85
2024/01/14 06:06:11;;;;;;;29.88;12.85;;;;;;;;;;4999659;28;20065;-87
2024/01/14 06:08:37;;;;;;;32.80;13.25;;;;;;;;;;4997984;28;20037;-86
2024/01/14 06:11:03;;;;;;;44.33;14.30;;;;;;;;;;5000746;28;20030;-85
2024/01/14 06:13:29;;;;;;;40.05;14.32;;;;;;;;;;5002771;28;20026;-86
2024/01/14 06:15:56;;;;;;;35.08;13.23;;;;;;;;;;4981927;28;20046;-86
2024/01/14 06:18:21;;;;;;;39.53;14.23;;;;;;;;;;4999624;28;20041;-85
2024/01/14 06:20:47;;;;;;;44.20;14.95;;;;;;;;;;5003137;28;20022;-87
2024/01/14 06:23:13;;;;;;;41.25;15.00;;;;;;;;;;5002480;28;20031;-87
2024/01/14 06:25:39;;;;;;;46.05;16.02;;;;;;;;;;4984776;28;20026;-87
2024/01/14 06:28:05;;;;;;;44.10;15.02;;;;;;;;;;5000080;28;20089;-86
2024/01/14 06:30:31;;;;;;;46.55;15.57;;;;;;;;;;5004371;28;20030;-85
2024/01/14 06:32:56;;;;;;;42.45;14.77;;;;;;;;;;4995441;28;20061;-85
2024/01/14 06:35:22;;;;;;;38.63;14.73;;;;;;;;;;5000606;28;20060;-85
2024/01/14 06:37:48;;;;;;;45.35;15.52;;;;;;;;;;5001328;28;20049;-86
2024/01/14 06:40:14;;;;;;;43.67;14.63;;;;;;;;;;5001154;28;20038;-86
2024/01/14 06:42:39;;;;;;;40.60;14.35;;;;;;;;;;5001322;28;20038;-86
2024/01/14 06:45:06;;;;;;;43.35;14.07;;;;;;;;;;4982488;28;20031;-85
2024/01/14 06:47:31;;;;;;;36.53;14.30;;;;;;;;;;5000951;28;20077;-85
2024/01/14 06:49:57;;;;;;;44.53;15.27;;;;;;;;;;5000847;28;20050;-86
2024/01/14 06:52:22;;;;;;;42.40;15.52;;;;;;;;;;4996579;28;20030;-85
2024/01/14 06:54:51;;;;;;;41.30;14.88;;;;;;;;;;4995854;28;20065;-87
2024/01/14 06:57:17;;;;;;;38.53;15.07;;;;;;;;;;5002165;28;20046;-85
2024/01/14 06:59:44;;;;;;;43.58;18.02;;;;;;;;;;5000209;28;20034;-86
2024/01/14 07:02:12;;;;;;;35.35;14.55;;;;;;;;;;4998680;28;20113;-86
2024/01/14 07:04:37;;;;;;;41.03;15.35;;;;;;;;;;4999117;28;20022;-84
2024/01/14 07:07:03;;;;;;;39.63;15.73;;;;;;;;;;4998179;28;20030;-85
2024/01/14 07:09:28;;;;;;;38.10;15.55;;;;;;;;;;4996109;28;20128;-86
2024/01/14 07:11:54;;;;;;;38.78;16.20;;;;;;;;;;4986350;28;20062;-85
2024/01/14 07:14:22;;;;;;;37.53;14.73;;;;;;;;;;4991578;28;20065;-85
2024/01/14 07:16:48;;;;;;;35.78;14.75;;;;;;;;;;4987138;28;20022;-86
2024/01/14 07:19:13;;;;;;;38.22;14.45;;;;;;;;;;4992465;28;20062;-85
2024/01/14 07:21:39;;;;;;;35.45;14.25;;;;;;;;;;4991916;28;20034;-85
2024/01/14 07:24:04;;;;;;;35.40;14.52;;;;;;;;;;4994345;28;20073;-85
2024/01/14 07:26:30;;;;;;;39.63;14.57;;;;;;;;;;4995305;28;20500;-82
2024/01/14 07:28:55;;;;;;;36.55;14.32;;;;;;;;;;4995255;28;20042;-84
2024/01/14 07:31:21;;;;;;;38.25;14.70;;;;;;;;;;4997944;28;20038;-84
2024/01/14 07:33:50;;;;;;;42.88;15.00;;;;;;;;;;4996106;28;20031;-84
2024/01/14 07:36:16;;;;;;;38.33;14.10;;;;;;;;;;4959404;28;20505;-85
2024/01/14 07:38:41;;;;;;;34.42;13.85;;;;;;;;;;4977459;28;20042;-84
2024/01/14 07:41:12;;;;;;;34.03;13.20;;;;;;;;;;4974209;28;20046;-85
2024/01/14 07:43:38;;;;;;;33.25;13.32;;;;;;;;;;4958716;28;20027;-85
2024/01/14 07:46:05;;;;;;;35.90;13.77;;;;;;;;;;4991787;28;20412;-85
2024/01/14 07:48:31;;;;;;;41.25;15.60;;;;;;;;;;4977085;28;20040;-85
2024/01/14 07:50:56;;;;;;;37.38;14.68;;;;;;;;;;4972775;28;20117;-85
2024/01/14 07:53:22;;;;;;;34.53;14.80;;;;;;;;;;4984896;28;20092;-85
2024/01/14 07:55:47;;;;;;;37.20;14.68;;;;;;;;;;4984732;28;20463;-85
2024/01/14 07:58:13;;;;;;;37.55;14.77;;;;;;;;;;4991819;28;20077;-85
2024/01/14 08:00:38;;;;;;;36.28;14.73;;;;;;;;;;4992928;28;20038;-85
2024/01/14 08:03:04;;;;;;;34.65;13.40;;;;;;;;;;4988586;28;20014;-85
2024/01/14 08:05:30;;;;;;;36.53;13.55;;;;;;;;;;4986287;28;20080;-84
2024/01/14 08:07:55;;;;;;;36.85;13.88;;;;;;;;;;4995024;28;20058;-83
2024/01/14 08:10:21;;;;;;;29.27;12.85;;;;;;;;;;4984274;28;20104;-84
2024/01/14 08:12:47;;;;;;;37.20;13.30;;;;;;;;;;4992714;28;20034;-84
2024/01/14 08:15:14;;;;;;;35.05;13.95;;;;;;;;;;4978410;28;20034;-85
2024/01/14 08:17:40;;;;;;;30.00;13.30;;;;;;;;;;4990443;28;20551;-85
2024/01/14 08:20:08;;;;;;;27.45;12.07;;;;;;;;;;4975281;28;20030;-84
2024/01/14 08:22:33;;;;;;;29.30;11.73;;;;;;;;;;4990162;28;20443;-85
2024/01/14 08:24:59;;;;;;;33.05;12.93;;;;;;;;;;4983940;28;20476;-84
2024/01/14 08:27:24;;;;;;;33.92;12.52;;;;;;;;;;4996451;28;20441;-83
2024/01/14 08:29:50;;;;;;;32.42;13.27;;;;;;;;;;4978249;28;20042;-84
2024/01/14 08:32:15;;;;;;;32.83;13.18;;;;;;;;;;4979447;28;20030;-83
2024/01/14 08:34:41;;;;;;;37.03;14.20;;;;;;;;;;4997571;28;20488;-86
2024/01/14 08:37:06;;;;;;;35.28;12.93;;;;;;;;;;4990311;28;20034;-85
2024/01/14 08:39:32;;;;;;;31.40;12.38;;;;;;;;;;4991458;28;20417;-83
2024/01/14 08:41:57;;;;;;;30.73;12.57;;;;;;;;;;4981899;28;20096;-84
2024/01/14 08:44:23;;;;;;;34.58;12.95;;;;;;;;;;5000501;28;20029;-86
2024/01/14 08:46:48;;;;;;;32.85;12.35;;;;;;;;;;4997215;28;20042;-86
2024/01/14 08:49:14;;;;;;;31.65;12.40;;;;;;;;;;4993020;28;20939;-86
2024/01/14 08:51:40;;;;;;;30.40;11.82;;;;;;;;;;4995966;28;20038;-88
2024/01/14 08:54:06;;;;;;;31.38;12.85;;;;;;;;;;4987088;28;20039;-84
2024/01/14 08:56:32;;;;;;;31.25;12.38;;;;;;;;;;4979316;28;20042;-84
2024/01/14 08:58:58;;;;;;;29.80;12.85;;;;;;;;;;4979734;28;20042;-86
2024/01/14 09:01:24;;;;;;;39.08;13.68;;;;;;;;;;4990675;28;20436;-86
2024/01/14 09:03:50;;;;;;;31.63;13.70;;;;;;;;;;4992088;28;20034;-85
2024/01/14 09:06:16;;;;;;;31.60;13.45;;;;;;;;;;4979259;28;20018;-85
2024/01/14 09:08:41;;;;;;;30.33;12.50;;;;;;;;;;4995941;28;20030;-86
2024/01/14 09:11:07;;;;;;;32.92;13.23;;;;;;;;;;4992277;28;20463;-87
2024/01/14 09:13:33;;;;;;;33.63;13.10;;;;;;;;;;4997700;28;20132;-84
2024/01/14 09:15:59;;;;;;;28.75;13.48;;;;;;;;;;4994054;28;20042;-85
2024/01/14 09:18:25;;;;;;;28.73;12.45;;;;;;;;;;4974773;28;20031;-84
2024/01/14 09:20:50;;;;;;;27.98;12.40;;;;;;;;;;4992302;28;20034;-86
2024/01/14 09:23:16;;;;;;;37.33;13.35;;;;;;;;;;4993048;28;20113;-86
2024/01/14 09:25:41;;;;;;;29.42;12.48;;;;;;;;;;4994060;28;20030;-86
2024/01/14 09:28:07;;;;;;;32.88;13.30;;;;;;;;;;4994731;28;20093;-85
2024/01/14 09:30:32;;;;;;;28.10;12.13;;;;;;;;;;4977415;28;20034;-85
2024/01/14 09:32:58;;;;;;;32.97;13.70;;;;;;;;;;4997557;28;20484;-85
2024/01/14 09:35:24;;;;;;;30.02;13.25;;;;;;;;;;4988340;28;20069;-84
2024/01/14 09:37:50;;;;;;;26.50;11.27;;;;;;;;;;4986003;28;20397;-85
2024/01/14 09:40:18;;;;;;;33.90;13.27;;;;;;;;;;4995904;28;20396;-86
2024/01/14 09:42:45;;;;;;;36.30;14.07;;;;;;;;;;4994713;28;20049;-86
2024/01/14 09:45:10;;;;;;;33.10;13.93;;;;;;;;;;4990682;28;20027;-85
2024/01/14 09:47:38;;;;;;;32.75;14.13;;;;;;;;;;4989591;28;20034;-85
2024/01/14 09:50:06;;;;;;;29.67;13.27;;;;;;;;;;4989551;28;20030;-85
2024/01/14 09:52:32;;;;;;;32.55;13.45;;;;;;;;;;4996841;28;20065;-84
2024/01/14 09:54:58;;;;;;;32.53;13.43;;;;;;;;;;4989761;28;20061;-86
2024/01/14 09:57:24;;;;;;;28.58;12.38;;;;;;;;;;4995099;28;20039;-85
2024/01/14 09:59:50;;;;;;;34.10;13.98;;;;;;;;;;4990052;28;20038;-85
2024/01/14 10:02:17;;;;;;;32.80;13.63;;;;;;;;;;4992726;28;20031;-86
2024/01/14 10:04:43;;;;;;;32.38;14.00;;;;;;;;;;4997528;28;20038;-86
2024/01/14 10:07:09;;;;;;;34.45;14.05;;;;;;;;;;4963881;28;20043;-87
2024/01/14 10:09:35;;;;;;;30.40;14.20;;;;;;;;;;4997531;28;20034;-86
2024/01/14 10:12:02;;;;;;;34.08;13.90;;;;;;;;;;4996005;28;20527;-86
2024/01/14 10:14:27;;;;;;;27.35;12.30;;;;;;;;;;4998832;28;20038;-86
2024/01/14 10:16:59;;;;;;;33.40;13.32;;;;;;;;;;4972804;28;20061;-86
2024/01/14 10:19:24;;;;;;;28.77;12.25;;;;;;;;;;4993322;28;20038;-86
2024/01/14 10:21:55;;;;;;;29.05;12.48;;;;;;;;;;4994330;28;20045;-86
2024/01/14 10:24:21;;;;;;;30.42;12.50;;;;;;;;;;4991276;28;20038;-86
2024/01/14 10:26:54;;;;;;;32.05;13.55;;;;;;;;;;4993044;28;20026;-87
2024/01/14 10:29:20;;;;;;;33.63;14.30;;;;;;;;;;4989874;28;20110;-88
2024/01/14 10:31:46;;;;;;;31.77;13.32;;;;;;;;;;4995162;28;20409;-86
2024/01/14 10:34:11;;;;;;;32.67;13.35;;;;;;;;;;4973364;28;20034;-86
2024/01/14 10:36:37;;;;;;;29.38;12.77;;;;;;;;;;4994697;28;20105;-86
2024/01/14 10:39:04;;;;;;;30.83;12.90;;;;;;;;;;4984846;28;20468;-85
2024/01/14 10:41:29;;;;;;;32.08;12.10;;;;;;;;;;4985515;28;20134;-86
2024/01/14 10:43:55;;;;;;;29.88;12.85;;;;;;;;;;4990447;28;20030;-87
2024/01/14 10:46:22;;;;;;;29.13;12.32;;;;;;;;;;4990486;28;20031;-88
2024/01/14 10:49:02;;;;;;;28.17;12.30;;;;;;;;;;4987366;28;20493;-86
2024/01/14 10:51:31;;;;;;;27.25;12.32;;;;;;;;;;4987400;28;20039;-86
2024/01/14 10:54:09;;;;;;;24.35;12.00;;;;;;;;;;4996129;28;20126;-86
2024/01/14 10:56:39;;;;;;;26.88;12.18;;;;;;;;;;4999214;28;20035;-87
2024/01/14 10:59:08;;;;;;;27.70;12.00;;;;;;;;;;4995633;28;20030;-86
2024/01/14 11:01:41;;;;;;;26.88;12.77;;;;;;;;;;4997354;28;20035;-86
2024/01/14 11:04:07;;;;;;;27.60;12.25;;;;;;;;;;4996108;28;20062;-87
2024/01/14 11:06:34;;;;;;;29.65;12.82;;;;;;;;;;4997308;28;20049;-86
2024/01/14 11:09:00;;;;;;;28.52;11.77;;;;;;;;;;4990807;28;20042;-86
2024/01/14 11:11:37;;;;;;;29.45;12.32;;;;;;;;;;4992261;28;20490;-86
2024/01/14 11:14:11;;;;;;;30.42;13.35;;;;;;;;;;4995239;28;20117;-86
2024/01/14 11:16:48;;;;;;;35.45;13.95;;;;;;;;;;4999478;28;20080;-87
2024/01/14 11:19:18;;;;;;;27.95;12.82;;;;;;;;;;4997709;28;20042;-86
2024/01/14 11:22:05;;;;;;;30.65;13.23;;;;;;;;;;4997853;28;20103;-86
2024/01/14 11:24:31;;;;;;;29.98;13.20;;;;;;;;;;4996459;28;20034;-87
2024/01/14 11:26:57;;;;;;;32.35;14.75;;;;;;;;;;4961631;28;20038;-86
2024/01/14 11:29:39;;;;;;;28.85;12.77;;;;;;;;;;4993139;28;20126;-85
2024/01/14 11:32:12;;;;;;;28.52;12.65;;;;;;;;;;4991646;28;20060;-85
2024/01/14 11:34:47;;;;;;;28.38;12.30;;;;;;;;;;4975865;28;20034;-85
2024/01/14 11:37:43;;;;;;;26.90;11.70;;;;;;;;;;4976794;28;20038;-84
2024/01/14 11:40:09;;;;;;;30.05;11.98;;;;;;;;;;4992552;28;20467;-84
2024/01/14 11:42:38;;;;;;;29.92;11.63;;;;;;;;;;4994783;28;20033;-84
2024/01/14 11:45:27;;;;;;;23.52;10.30;;;;;;;;;;4993414;28;20113;-84
2024/01/14 11:47:56;;;;;;;24.85;10.90;;;;;;;;;;4961701;28;20407;-85
2024/01/14 11:50:24;;;;;;;24.35;10.75;;;;;;;;;;4989045;28;20242;-85
2024/01/14 11:52:51;;;;;;;25.52;10.80;;;;;;;;;;4976821;28;20144;-84
2024/01/14 11:55:24;;;;;;;22.63;10.15;;;;;;;;;;4994763;28;20913;-85
2024/01/14 11:57:50;;;;;;;;;;;;;;;;;;4995015;28;20042;-84
2024/01/14 12:00:17;;;;;;;26.75;9.52;;;;;;;;;;4995932;28;20382;-84
2024/01/14 12:02:42;;;;;;;21.80;10.05;;;;;;;;;;4995241;28;20066;-84
2024/01/14 12:05:17;;;;;;;19.70;9.52;;;;;;;;;;4993640;28;20030;-84
2024/01/14 12:07:43;;;;;;;19.73;9.75;;;;;;;;;;4992833;28;20543;-84
2024/01/14 12:10:12;;;;;;;24.02;10.35;;;;;;;;;;4995423;28;20076;-87
2024/01/14 12:12:38;;;;;;;21.38;10.27;;;;;;;;;;5000653;28;20038;-85
2024/01/14 12:15:04;;;;;;;24.10;11.40;;;;;;;;;;4988201;28;20404;-85
2024/01/14 12:17:31;;;;;;;27.45;11.50;;;;;;;;;;4996439;28;20053;-86
2024/01/14 12:20:01;;;;;;;25.85;11.75;;;;;;;;;;4978660;28;20070;-85
2024/01/14 12:22:27;;;;;;;28.25;12.45;;;;;;;;;;4996326;28;20038;-84
2024/01/14 12:24:54;;;;;;;25.45;12.07;;;;;;;;;;4998530;28;20023;-85
2024/01/14 12:27:19;;;;;;;27.67;12.77;;;;;;;;;;4994917;28;20042;-85
2024/01/14 12:29:45;;;;;;;24.13;11.50;;;;;;;;;;4996784;28;20903;-86
2024/01/14 12:32:11;;;;;;;24.45;12.18;;;;;;;;;;4979859;28;20039;-86
2024/01/14 12:34:43;;;;;;;25.42;12.57;;;;;;;;;;4971318;28;20109;-86
2024/01/14 12:37:10;;;;;;;25.10;12.20;;;;;;;;;;4994310;28;20042;-87
2024/01/14 12:39:36;;;;;;;26.80;12.57;;;;;;;;;;4978601;28;20110;-88
2024/01/14 12:42:04;;;;;;;30.20;12.75;;;;;;;;;;4991600;28;20084;-86
2024/01/14 12:44:39;;;;;;;30.10;14.00;;;;;;;;;;4977631;28;20061;-86
2024/01/14 12:47:05;;;;;;;25.77;11.98;;;;;;;;;;4993618;28;20404;-87
2024/01/14 12:49:32;;;;;;;31.42;13.02;;;;;;;;;;4995227;28;20034;-86
2024/01/14 12:52:03;;;;;;;24.85;11.80;;;;;;;;;;4994028;28;20124;-84
2024/01/14 12:54:29;;;;;;;28.90;13.30;;;;;;;;;;4974350;28;20046;-83
2024/01/14 12:57:01;;;;;;;29.98;12.00;;;;;;;;;;4973227;28;20088;-84
2024/01/14 12:59:27;;;;;;;29.77;12.48;;;;;;;;;;4974744;28;20050;-84
2024/01/14 13:01:53;;;;;;;26.40;11.55;;;;;;;;;;4981220;28;20072;-84
2024/01/14 13:04:18;;;;;;;25.45;11.07;;;;;;;;;;4991857;28;20026;-86
2024/01/14 13:06:43;;;;;;;29.08;11.05;;;;;;;;;;4977054;28;20014;-86
2024/01/14 13:09:09;;;;;;;25.73;11.70;;;;;;;;;;4993538;28;20161;-86
2024/01/14 13:11:34;;;;;;;24.20;11.82;;;;;;;;;;4993489;28;20420;-85
2024/01/14 13:14:00;;;;;;;24.75;11.70;;;;;;;;;;4991217;28;20507;-85
2024/01/14 13:16:26;;;;;;;26.50;12.07;;;;;;;;;;4992962;28;20416;-86
2024/01/14 13:18:51;;;;;;;23.77;11.82;;;;;;;;;;4974103;28;20038;-84
2024/01/14 13:21:17;;;;;;;24.30;11.57;;;;;;;;;;4976470;28;20031;-85
2024/01/14 13:23:42;;;;;;;25.83;11.73;;;;;;;;;;4993953;28;20387;-85
2024/01/14 13:26:08;;;;;;;26.75;11.48;;;;;;;;;;4992587;28;20049;-86
2024/01/14 13:28:33;;;;;;;24.73;10.93;;;;;;;;;;4993546;28;20157;-84
2024/01/14 13:30:59;;;;;;;21.38;10.30;;;;;;;;;;4992690;28;20043;-86
2024/01/14 13:33:25;;;;;;;22.50;10.40;;;;;;;;;;4993233;28;20038;-85
2024/01/14 13:35:51;;;;;;;20.30;9.82;;;;;;;;;;4975064;28;20030;-84
2024/01/14 13:38:16;;;;;;;17.52;8.55;;;;;;;;;;4990837;28;20122;-85
2024/01/14 13:40:42;;;;;;;19.98;9.85;;;;;;;;;;4991557;28;20030;-86
2024/01/14 13:43:07;;;;;;;18.15;9.65;;;;;;;;;;4976128;28;20037;-85
2024/01/14 13:45:33;;;;;;;16.85;8.85;;;;;;;;;;4990754;28;20598;-85
2024/01/14 13:47:59;;;;;;;25.23;9.27;;;;;;;;;;4992473;28;20423;-85
2024/01/14 13:50:24;;;;;;;21.80;9.63;;;;;;;;;;4993832;28;20037;-85
2024/01/14 13:52:50;;;;;;;28.20;10.20;;;;;;;;;;4994046;28;20042;-86
2024/01/14 13:55:16;;;;;;;24.45;9.73;;;;;;;;;;4971263;28;20084;-86
2024/01/14 13:57:42;;;;;;;20.95;10.15;;;;;;;;;;4974789;28;20022;-87
2024/01/14 14:00:08;;;;;;;28.63;11.45;;;;;;;;;;4991607;28;20019;-86
2024/01/14 14:02:35;;;;;;;23.23;10.85;;;;;;;;;;4992395;28;20100;-86
2024/01/14 14:05:01;;;;;;;23.70;11.48;;;;;;;;;;4993198;28;20046;-87
2024/01/14 14:07:29;;;;;;;24.30;11.82;;;;;;;;;;4993155;28;20022;-85
2024/01/14 14:09:55;;;;;;;19.05;9.57;;;;;;;;;;4976416;28;20034;-86
2024/01/14 14:12:20;;;;;;;17.13;9.13;;;;;;;;;;4976666;28;20133;-86
2024/01/14 14:14:46;;;;;;;18.63;8.43;;;;;;;;;;4990771;28;20463;-86